Time;durP1;ratioP1;P1;durP2;ratioP2;P2;SDS_P1;SDS_P2;PMS_P1;PMS_P2;Temp;Humidity;BMP_temperature;BMP_pressure;BME280_temperature;BME280_humidity;BME280_pressure;Samples;Min_cycle;Max_cycle;Signal;HPM_P1;HPM_P2
2023/02/14 00:01:49;;;;;;;24.70;21.93;;;3.00;99.90;;;;;;10518119;28;20204;-78
2023/02/14 00:06:52;;;;;;;24.90;21.73;;;3.00;99.90;;;;;;10525680;28;20216;-77
2023/02/14 00:11:54;;;;;;;25.60;22.87;;;2.90;99.90;;;;;;10533044;28;20306;-79
2023/02/14 00:16:56;;;;;;;25.30;22.37;;;2.90;99.90;;;;;;10514150;28;20213;-77
2023/02/14 00:22:00;;;;;;;24.50;21.90;;;3.00;99.90;;;;;;10542281;28;20192;-77
2023/02/14 00:27:02;;;;;;;24.53;21.93;;;2.90;99.90;;;;;;10514636;28;20217;-79
2023/02/14 00:32:04;;;;;;;24.97;22.17;;;3.00;99.80;;;;;;10523340;28;20251;-79
2023/02/14 00:37:07;;;;;;;23.83;21.20;;;3.00;99.90;;;;;;10497893;28;20205;-78
2023/02/14 00:42:09;;;;;;;23.10;20.07;;;3.00;99.90;;;;;;10527977;28;20200;-78
2023/02/14 00:47:12;;;;;;;24.37;21.67;;;3.00;99.90;;;;;;10497232;28;20286;-79
2023/02/14 00:52:16;;;;;;;25.90;20.20;;;3.00;99.90;;;;;;10482691;28;20234;-77
2023/02/14 00:57:18;;;;;;;23.70;20.87;;;3.00;99.70;;;;;;10509882;28;20247;-78
2023/02/14 01:02:20;;;;;;;22.80;20.30;;;2.90;99.90;;;;;;10507676;28;20238;-78
2023/02/14 01:07:23;;;;;;;25.70;22.97;;;2.90;99.80;;;;;;10540303;28;20213;-77
2023/02/14 01:12:25;;;;;;;23.83;20.87;;;2.90;99.90;;;;;;10491782;28;20197;-78
2023/02/14 01:17:27;;;;;;;22.97;20.60;;;2.90;99.90;;;;;;10500377;28;20696;-78
2023/02/14 01:22:35;;;;;;;21.00;18.80;;;2.90;99.80;;;;;;10497447;28;20202;-79
2023/02/14 01:27:37;;;;;;;21.83;19.57;;;2.80;99.90;;;;;;10507080;28;20795;-77
2023/02/14 01:32:39;;;;;;;25.97;22.90;;;2.70;99.90;;;;;;10504934;28;20201;-77
2023/02/14 01:37:43;;;;;;;24.73;22.07;;;2.70;99.90;;;;;;10490832;28;20210;-77
2023/02/14 01:42:45;;;;;;;24.37;21.57;;;2.70;99.90;;;;;;10498226;28;20250;-78
2023/02/14 01:47:51;;;;;;;25.23;21.27;;;2.60;99.90;;;;;;10508836;28;20576;-77
2023/02/14 01:53:00;;;;;;;23.83;21.23;;;2.70;99.90;;;;;;10504368;28;20204;-78
2023/02/14 01:58:06;;;;;;;24.03;20.17;;;2.70;99.90;;;;;;10483890;28;20286;-78
2023/02/14 02:03:09;;;;;;;46.47;28.77;;;2.60;99.90;;;;;;10466200;28;20212;-79
2023/02/14 02:08:12;;;;;;;24.00;21.43;;;2.60;99.90;;;;;;10482494;28;20220;-79
2023/02/14 02:13:17;;;;;;;24.50;21.90;;;2.60;99.90;;;;;;10489929;28;20220;-80
2023/02/14 02:18:31;;;;;;;24.77;22.07;;;2.60;99.90;;;;;;10490091;28;20569;-79
2023/02/14 02:24:11;;;;;;;23.40;20.90;;;2.60;99.70;;;;;;10480892;28;20213;-80
2023/02/14 02:29:47;;;;;;;24.63;21.97;;;2.60;99.90;;;;;;10478722;28;20255;-80
2023/02/14 02:35:15;;;;;;;23.70;21.17;;;2.50;99.90;;;;;;10495501;28;20625;-80
2023/02/14 02:40:32;;;;;;;19.40;17.30;;;2.60;99.70;;;;;;10476347;28;20196;-80
2023/02/14 02:46:46;;;;;;;24.57;21.97;;;2.50;99.90;;;;;;10468961;28;20245;-80
2023/02/14 02:56:46;;;;;;;22.83;20.00;;;2.50;99.90;;;;;;10493940;28;20220;-80
2023/02/14 03:01:51;;;;;;;24.80;22.17;;;2.50;99.70;;;;;;10501417;28;20703;-80
2023/02/14 03:06:56;;;;;;;24.40;21.73;;;2.50;99.90;;;;;;10546044;28;20220;-80
2023/02/14 03:12:18;;;;;;;25.47;22.77;;;2.50;99.90;;;;;;10494532;28;20385;-79
2023/02/14 03:17:30;;;;;;;24.80;22.10;;;2.40;99.90;;;;;;10519508;28;20212;-81
2023/02/14 03:22:43;;;;;;;24.70;21.90;;;2.50;99.90;;;;;;10493228;28;20196;-80
2023/02/14 03:27:52;;;;;;;27.43;22.83;;;2.50;99.80;;;;;;10518747;28;20224;-79
2023/02/14 03:33:01;;;;;;;24.43;21.83;;;2.40;99.90;;;;;;10515355;28;20197;-78
2023/02/14 03:38:10;;;;;;;26.77;23.20;;;2.40;99.90;;;;;;10502597;28;20246;-79
2023/02/14 03:43:17;;;;;;;27.90;23.97;;;2.40;99.90;;;;;;10512970;28;20563;-79
2023/02/14 03:48:23;;;;;;;26.33;22.97;;;2.40;99.90;;;;;;10508111;28;20220;-80
2023/02/14 03:53:32;;;;;;;27.93;24.93;;;2.40;99.90;;;;;;10477958;28;20237;-79
2023/02/14 03:58:39;;;;;;;29.33;25.80;;;2.40;99.90;;;;;;10524094;28;20256;-81
2023/02/14 04:03:43;;;;;;;28.43;24.63;;;2.40;99.90;;;;;;10483708;28;20217;-80
2023/02/14 04:08:46;;;;;;;26.23;22.87;;;2.40;99.90;;;;;;10495290;28;20315;-81
2023/02/14 04:13:48;;;;;;;28.67;24.67;;;2.50;99.90;;;;;;10516477;28;20258;-78
2023/02/14 04:24:11;;;;;;;28.93;25.53;;;2.50;99.90;;;;;;10515353;28;20299;-81
2023/02/14 04:29:13;;;;;;;28.20;24.90;;;2.50;99.80;;;;;;10511218;28;20212;-79
2023/02/14 04:34:15;;;;;;;27.93;23.80;;;2.60;99.60;;;;;;10495555;28;20288;-79
2023/02/14 04:39:19;;;;;;;27.43;24.43;;;2.60;99.30;;;;;;10503242;28;20218;-79
2023/02/14 04:44:21;;;;;;;27.03;24.00;;;2.50;99.20;;;;;;10511410;28;20213;-78
2023/02/14 04:49:23;;;;;;;28.93;25.90;;;2.40;99.40;;;;;;10510817;28;20209;-79
2023/02/14 04:54:26;;;;;;;28.27;24.27;;;2.40;99.90;;;;;;10530153;28;20259;-80
2023/02/14 04:59:28;;;;;;;29.07;25.53;;;2.40;99.40;;;;;;10515829;28;20276;-79
2023/02/14 05:04:30;;;;;;;29.50;25.17;;;2.40;99.30;;;;;;10484870;28;20253;-79
2023/02/14 05:09:36;;;;;;;28.70;25.43;;;2.40;99.80;;;;;;10545674;28;20220;-80
2023/02/14 05:14:38;;;;;;;26.10;23.33;;;2.40;99.70;;;;;;10495820;28;20332;-79
2023/02/14 05:19:40;;;;;;;28.17;24.17;;;2.40;99.50;;;;;;10547167;28;20220;-79
2023/02/14 05:24:45;;;;;;;28.67;24.33;;;2.40;99.60;;;;;;10506090;28;20296;-80
2023/02/14 05:29:47;;;;;;;32.27;25.27;;;2.40;99.60;;;;;;10499991;28;20303;-80
2023/02/14 05:34:49;;;;;;;30.73;25.50;;;2.40;99.80;;;;;;10541120;28;20550;-79
2023/02/14 05:39:53;;;;;;;29.70;25.20;;;2.30;99.40;;;;;;10499000;28;20184;-81
2023/02/14 05:44:55;;;;;;;22.27;19.83;;;2.30;99.60;;;;;;10528224;28;20243;-81
2023/02/14 05:49:57;;;;;;;31.20;26.17;;;2.30;99.90;;;;;;10490596;28;20248;-81
2023/02/14 05:55:00;;;;;;;29.17;24.80;;;2.30;99.70;;;;;;10500540;28;20224;-81
2023/02/14 06:00:04;;;;;;;28.67;24.57;;;2.30;99.80;;;;;;10512305;28;20193;-80
2023/02/14 06:05:16;;;;;;;31.10;25.60;;;2.40;99.90;;;;;;10520715;28;20268;-81
2023/02/14 06:10:21;;;;;;;32.23;27.70;;;2.40;99.80;;;;;;10482561;28;20272;-82
2023/02/14 06:15:23;;;;;;;29.83;26.13;;;2.40;99.60;;;;;;10479751;28;20214;-81
2023/02/14 06:20:26;;;;;;;35.97;31.13;;;2.30;99.40;;;;;;10494587;28;20284;-82
2023/02/14 06:25:29;;;;;;;39.77;35.43;;;2.40;99.60;;;;;;10529592;28;20216;-83
2023/02/14 06:30:32;;;;;;;44.17;37.00;;;2.30;99.90;;;;;;10499993;28;20210;-83
2023/02/14 06:35:34;;;;;;;28.60;25.50;;;2.40;99.60;;;;;;10498039;28;20213;-81
2023/02/14 06:40:37;;;;;;;35.20;30.30;;;2.40;99.60;;;;;;10519533;28;20189;-82
2023/02/14 06:45:42;;;;;;;31.53;28.10;;;2.40;99.90;;;;;;10534726;28;20237;-82
2023/02/14 06:50:46;;;;;;;33.30;29.60;;;2.40;99.80;;;;;;10513164;28;20603;-81
2023/02/14 06:55:49;;;;;;;33.20;29.67;;;2.40;99.70;;;;;;10510591;28;20221;-78
2023/02/14 07:00:51;;;;;;;31.53;28.13;;;2.40;99.90;;;;;;10500008;28;20680;-76
2023/02/14 07:05:54;;;;;;;31.57;27.70;;;2.30;99.90;;;;;;10470696;28;20240;-77
2023/02/14 07:10:58;;;;;;;32.27;27.07;;;2.40;99.80;;;;;;10518353;28;20193;-78
2023/02/14 07:16:00;;;;;;;32.07;26.33;;;2.40;99.90;;;;;;10484514;28;20588;-79
2023/02/14 07:21:02;;;;;;;30.37;25.97;;;2.40;99.60;;;;;;10539297;28;20215;-78
2023/02/14 07:26:05;;;;;;;30.23;26.83;;;2.40;99.90;;;;;;10515374;28;20662;-79
2023/02/14 07:31:07;;;;;;;33.33;29.63;;;2.40;99.90;;;;;;10482195;28;20197;-79
2023/02/14 07:36:10;;;;;;;31.20;25.90;;;2.50;99.90;;;;;;10522675;28;20223;-78
2023/02/14 07:41:14;;;;;;;31.00;26.40;;;2.60;99.90;;;;;;10520116;28;20287;-80
2023/02/14 07:46:17;;;;;;;29.87;26.67;;;2.70;99.90;;;;;;10508396;28;20315;-80
2023/02/14 07:51:19;;;;;;;31.20;26.77;;;2.70;99.90;;;;;;10541169;28;20189;-79
2023/02/14 07:56:22;;;;;;;29.10;25.43;;;2.70;99.90;;;;;;10466842;28;20255;-77
2023/02/14 08:01:25;;;;;;;32.00;26.63;;;2.80;99.90;;;;;;10461060;28;20184;-78
2023/02/14 08:06:27;;;;;;;30.03;25.37;;;2.90;99.90;;;;;;10478436;28;20581;-78
2023/02/14 08:16:51;;;;;;;32.37;26.53;;;3.10;99.90;;;;;;10499359;28;20210;-77
2023/02/14 08:21:53;;;;;;;30.50;27.30;;;3.20;99.90;;;;;;10527109;28;20649;-77
2023/02/14 08:26:56;;;;;;;29.07;25.57;;;3.30;99.90;;;;;;10462475;28;20630;-78
2023/02/14 08:31:59;;;;;;;30.97;27.57;;;3.40;99.90;;;;;;10533863;28;20276;-77
2023/02/14 08:37:01;;;;;;;32.47;29.00;;;3.50;99.90;;;;;;10495208;28;20209;-77
2023/02/14 08:42:05;;;;;;;35.20;30.63;;;3.60;99.90;;;;;;10531096;28;20285;-77
2023/02/14 08:47:07;;;;;;;32.90;29.43;;;3.70;99.90;;;;;;10533822;28;20276;-77
2023/02/14 08:52:09;;;;;;;33.47;29.70;;;3.80;99.90;;;;;;10495100;28;20221;-77
2023/02/14 08:57:14;;;;;;;33.93;28.13;;;4.00;99.90;;;;;;10544223;28;20595;-78
2023/02/14 09:02:16;;;;;;;36.10;30.00;;;4.20;99.90;;;;;;10514371;28;20201;-78
2023/02/14 09:07:18;;;;;;;31.43;27.93;;;4.30;99.90;;;;;;10528513;28;20234;-78
2023/02/14 09:12:21;;;;;;;33.23;27.87;;;4.50;99.90;;;;;;10469297;28;20197;-77
2023/02/14 09:17:24;;;;;;;30.23;26.90;;;4.70;99.90;;;;;;10503670;28;20236;-77
2023/02/14 09:22:26;;;;;;;30.17;26.97;;;4.80;99.90;;;;;;10500722;28;20211;-78
2023/02/14 09:27:30;;;;;;;31.67;28.40;;;4.90;99.90;;;;;;10506926;28;20209;-77
2023/02/14 09:32:32;;;;;;;34.07;28.73;;;5.00;99.90;;;;;;10501346;28;20561;-77
2023/02/14 09:37:34;;;;;;;31.07;27.07;;;5.20;99.90;;;;;;10488178;28;20206;-78
2023/02/14 09:42:52;;;;;;;31.83;27.60;;;5.40;99.90;;;;;;10527651;28;20207;-79
2023/02/14 09:48:00;;;;;;;31.97;27.60;;;5.50;99.90;;;;;;10503511;28;20218;-77
2023/02/14 09:53:06;;;;;;;29.93;26.40;;;5.70;99.90;;;;;;10507133;28;20192;-79
2023/02/14 09:58:16;;;;;;;27.40;24.20;;;6.00;99.90;;;;;;10548183;28;20184;-78
2023/02/14 10:03:42;;;;;;;28.83;25.73;;;6.20;99.90;;;;;;10507901;28;20217;-77
2023/02/14 10:08:55;;;;;;;28.60;25.07;;;6.30;99.90;;;;;;10510542;28;20217;-78
2023/02/14 10:14:05;;;;;;;32.93;25.63;;;6.40;99.90;;;;;;10514020;28;20578;-78
2023/02/14 10:19:17;;;;;;;27.57;24.57;;;6.50;99.30;;;;;;10542756;28;20631;-78
2023/02/14 10:24:29;;;;;;;28.00;25.00;;;6.40;99.10;;;;;;10495639;28;20625;-78
2023/02/14 10:29:33;;;;;;;27.23;24.30;;;6.40;99.50;;;;;;10523471;28;20579;-77
2023/02/14 10:34:45;;;;;;;26.90;24.10;;;6.40;99.40;;;;;;10540055;28;20303;-77
2023/02/14 10:40:00;;;;;;;26.73;23.70;;;6.40;99.50;;;;;;10513352;28;20198;-78
2023/02/14 10:45:17;;;;;;;28.40;23.77;;;6.40;99.80;;;;;;10518412;28;20216;-78
2023/02/14 10:50:27;;;;;;;26.70;23.87;;;6.40;99.90;;;;;;10494203;28;20595;-78
2023/02/14 10:55:38;;;;;;;27.47;24.57;;;6.40;99.80;;;;;;10465513;28;20233;-78
2023/02/14 11:00:54;;;;;;;27.47;24.43;;;6.50;99.80;;;;;;10468423;28;20193;-77
2023/02/14 11:05:56;;;;;;;27.93;24.93;;;6.50;99.70;;;;;;10442420;28;20267;-78
2023/02/14 11:11:03;;;;;;;27.80;24.13;;;6.60;99.90;;;;;;10483075;28;20766;-78
2023/02/14 11:16:09;;;;;;;26.67;24.00;;;6.60;99.80;;;;;;10487544;28;20215;-77
2023/02/14 11:21:13;;;;;;;24.90;22.30;;;6.70;99.90;;;;;;10443898;28;20199;-78
2023/02/14 11:26:22;;;;;;;26.20;23.40;;;6.70;99.90;;;;;;10470963;28;20271;-79
2023/02/14 11:31:29;;;;;;;28.10;23.83;;;6.80;99.90;;;;;;10459249;28;20222;-78
2023/02/14 11:36:32;;;;;;;24.23;21.33;;;6.80;99.90;;;;;;10478337;28;20224;-78
2023/02/14 11:41:50;;;;;;;25.17;22.47;;;6.90;99.80;;;;;;10488916;28;20654;-78
2023/02/14 11:46:55;;;;;;;25.23;22.23;;;7.00;99.80;;;;;;10458122;28;20226;-78
2023/02/14 11:51:59;;;;;;;25.53;21.93;;;7.10;99.80;;;;;;10468565;28;20246;-78
2023/02/14 11:57:07;;;;;;;23.87;21.27;;;7.10;99.60;;;;;;10489098;28;20232;-78
2023/02/14 12:02:31;;;;;;;25.60;22.80;;;7.20;99.70;;;;;;10500300;28;20203;-79
2023/02/14 12:07:36;;;;;;;24.60;22.10;;;7.30;99.20;;;;;;10524090;28;20223;-79
2023/02/14 12:12:49;;;;;;;25.60;22.47;;;7.40;99.60;;;;;;10501587;28;20196;-77
2023/02/14 12:18:00;;;;;;;21.90;19.67;;;7.50;99.20;;;;;;10502206;28;20746;-76
2023/02/14 12:23:11;;;;;;;23.10;20.80;;;7.60;99.00;;;;;;10482024;28;20207;-77
2023/02/14 12:28:18;;;;;;;22.23;20.03;;;7.60;99.20;;;;;;10478979;28;20251;-77
2023/02/14 12:33:24;;;;;;;22.63;20.27;;;7.70;98.60;;;;;;10499059;28;20219;-77
2023/02/14 12:38:38;;;;;;;22.50;20.20;;;7.80;98.50;;;;;;10518084;28;20181;-77
2023/02/14 12:43:49;;;;;;;23.63;21.13;;;7.80;98.20;;;;;;10494292;28;20226;-76
2023/02/14 12:49:08;;;;;;;24.10;21.50;;;7.80;98.80;;;;;;10501202;28;20209;-76
2023/02/14 12:54:31;;;;;;;24.43;21.33;;;7.90;99.10;;;;;;10509044;28;20236;-77
2023/02/14 12:59:43;;;;;;;23.20;20.70;;;7.90;98.80;;;;;;10458991;28;20193;-77
2023/02/14 13:04:56;;;;;;;23.17;20.90;;;8.00;98.70;;;;;;10498610;28;20689;-77
2023/02/14 13:10:04;;;;;;;24.67;22.23;;;8.10;98.50;;;;;;10524443;28;20212;-77
2023/02/14 13:15:18;;;;;;;24.37;21.87;;;8.20;98.50;;;;;;10503580;28;20706;-77
2023/02/14 13:20:46;;;;;;;25.37;22.67;;;8.20;98.60;;;;;;10493642;28;20196;-78
2023/02/14 13:25:56;;;;;;;25.03;21.37;;;8.30;98.40;;;;;;10501680;28;20225;-78
2023/02/14 13:31:00;;;;;;;24.47;21.40;;;8.40;98.90;;;;;;10538547;28;20242;-78
2023/02/14 13:36:07;;;;;;;26.50;22.00;;;8.40;98.80;;;;;;10509811;28;20696;-77
2023/02/14 13:41:10;;;;;;;24.63;22.13;;;8.40;98.50;;;;;;10538600;28;20195;-77
2023/02/14 13:46:13;;;;;;;27.53;23.20;;;8.40;98.80;;;;;;10519281;28;20726;-76
2023/02/14 13:51:17;;;;;;;27.17;23.83;;;8.40;99.10;;;;;;10487180;28;20222;-77
2023/02/14 13:56:34;;;;;;;27.13;24.20;;;8.50;99.10;;;;;;10518496;22;20230;-80
2023/02/14 14:01:39;;;;;;;29.03;24.20;;;8.50;99.00;;;;;;10536194;28;20731;-80
2023/02/14 14:07:16;;;;;;;26.03;23.33;;;8.60;98.70;;;;;;10488650;28;20226;-80
2023/02/14 14:12:37;;;;;;;28.63;24.57;;;8.60;99.10;;;;;;10426669;28;20202;-80
2023/02/14 14:17:43;;;;;;;25.43;22.70;;;8.60;99.00;;;;;;10486977;28;20229;-80
2023/02/14 14:22:49;;;;;;;28.50;23.90;;;8.60;98.90;;;;;;10452164;28;20220;-80
2023/02/14 14:27:51;;;;;;;26.97;24.27;;;8.70;98.60;;;;;;10505238;28;20301;-80
2023/02/14 14:32:53;;;;;;;26.67;23.87;;;8.70;98.50;;;;;;10502882;28;20407;-80
2023/02/14 14:38:00;;;;;;;24.43;21.83;;;8.70;98.70;;;;;;10449930;28;20202;-80
2023/02/14 14:43:13;;;;;;;26.70;23.60;;;8.80;98.90;;;;;;10511196;28;20667;-80
2023/02/14 14:48:22;;;;;;;27.17;24.37;;;8.80;98.90;;;;;;10487003;28;20211;-81
2023/02/14 14:53:31;;;;;;;25.90;23.30;;;8.80;99.30;;;;;;10473797;28;20221;-80
2023/02/14 14:58:37;;;;;;;29.20;23.50;;;8.70;99.20;;;;;;10475129;28;20194;-80
2023/02/14 15:03:40;;;;;;;25.97;23.47;;;8.70;99.20;;;;;;10454045;28;20249;-80
2023/02/14 15:08:44;;;;;;;25.23;22.47;;;8.70;99.40;;;;;;10503623;28;20242;-81
2023/02/14 15:13:49;;;;;;;27.57;23.70;;;8.80;99.30;;;;;;10460702;28;20215;-80
2023/02/14 15:18:53;;;;;;;25.53;22.87;;;8.80;99.60;;;;;;10485415;28;20254;-81
2023/02/14 15:23:57;;;;;;;27.10;24.30;;;8.80;99.40;;;;;;10530053;28;20211;-81
2023/02/14 15:29:01;;;;;;;31.47;24.67;;;8.80;99.10;;;;;;10496583;28;20234;-81
2023/02/14 15:34:04;;;;;;;28.57;25.30;;;8.90;99.40;;;;;;10499766;28;20227;-81
2023/02/14 15:39:09;;;;;;;27.97;24.97;;;8.90;99.50;;;;;;10506644;28;20192;-81
2023/02/14 15:44:22;;;;;;;27.57;24.70;;;8.90;99.50;;;;;;10453835;28;20275;-81
2023/02/14 15:49:34;;;;;;;27.13;24.30;;;8.90;99.50;;;;;;10487380;28;20217;-81
2023/02/14 15:54:41;;;;;;;28.80;24.40;;;8.90;99.90;;;;;;10477004;28;20301;-81
2023/02/14 15:59:43;;;;;;;27.73;24.90;;;8.90;99.90;;;;;;10453348;28;20190;-81
2023/02/14 16:04:45;;;;;;;27.20;24.37;;;8.80;99.60;;;;;;10430126;28;20630;-81
2023/02/14 16:09:50;;;;;;;27.23;24.00;;;8.80;99.90;;;;;;10504779;28;20369;-81
2023/02/14 16:15:02;;;;;;;30.10;26.93;;;8.80;99.90;;;;;;10490814;28;20649;-80
2023/02/14 16:20:22;;;;;;;26.93;24.10;;;8.70;99.90;;;;;;10456111;28;20232;-81
2023/02/14 16:25:26;;;;;;;26.00;23.30;;;8.70;99.20;;;;;;10479484;28;20232;-79
2023/02/14 16:30:28;;;;;;;27.00;22.37;;;8.60;99.10;;;;;;10488954;28;20214;-81
2023/02/14 16:35:30;;;;;;;26.00;23.30;;;8.40;99.40;;;;;;10469687;28;20597;-80
2023/02/14 16:40:34;;;;;;;26.20;23.40;;;8.20;99.50;;;;;;10464622;28;20291;-80
2023/02/14 16:45:36;;;;;;;26.77;23.57;;;8.00;99.50;;;;;;10491965;28;20280;-80
2023/02/14 16:50:40;;;;;;;26.47;23.83;;;7.90;99.80;;;;;;10445599;28;20205;-80
2023/02/14 16:55:43;;;;;;;26.17;23.50;;;7.70;99.80;;;;;;10464910;28;20257;-81
2023/02/14 17:00:46;;;;;;;28.17;25.20;;;7.50;99.90;;;;;;10501512;28;20240;-80
2023/02/14 17:05:48;;;;;;;26.40;23.80;;;7.40;99.90;;;;;;10498906;28;20216;-80
2023/02/14 17:10:52;;;;;;;25.83;23.33;;;7.30;99.90;;;;;;10463105;28;20734;-82
2023/02/14 17:15:55;;;;;;;38.60;34.50;;;7.10;99.90;;;;;;10442542;28;20209;-81
2023/02/14 17:20:59;;;;;;;29.70;26.60;;;7.00;99.90;;;;;;10476656;28;20193;-82
2023/02/14 17:26:02;;;;;;;29.47;26.40;;;7.00;99.90;;;;;;10461993;28;20213;-82
2023/02/14 17:31:04;;;;;;;31.37;28.17;;;6.90;99.90;;;;;;10465173;28;20227;-81
2023/02/14 17:36:08;;;;;;;31.30;28.10;;;6.80;99.90;;;;;;10477255;28;20240;-82
2023/02/14 17:41:13;;;;;;;30.90;27.77;;;6.60;99.90;;;;;;10459960;28;20185;-82
2023/02/14 17:46:17;;;;;;;31.27;27.97;;;6.60;99.90;;;;;;10511655;28;20216;-82
2023/02/14 17:51:19;;;;;;;32.63;29.20;;;6.50;99.90;;;;;;10466571;28;20272;-82
2023/02/14 17:56:24;;;;;;;31.87;28.57;;;6.40;99.90;;;;;;10459222;28;20228;-81
2023/02/14 18:01:30;;;;;;;32.07;28.70;;;6.30;99.90;;;;;;10515929;28;20190;-80
2023/02/14 18:06:32;;;;;;;31.90;28.60;;;6.20;99.90;;;;;;10494423;28;20220;-81
2023/02/14 18:11:38;;;;;;;31.97;28.57;;;6.20;99.90;;;;;;10447917;28;20260;-81
2023/02/14 18:16:41;;;;;;;35.20;30.30;;;6.20;99.90;;;;;;10491775;28;20643;-81
2023/02/14 18:21:45;;;;;;;34.00;30.30;;;6.10;99.90;;;;;;10439146;28;20232;-80
2023/02/14 18:26:48;;;;;;;32.50;27.77;;;6.00;99.90;;;;;;10463993;28;20691;-83
2023/02/14 18:31:50;;;;;;;33.63;30.13;;;6.00;99.90;;;;;;10429524;28;20558;-83
2023/02/14 18:36:53;;;;;;;35.60;31.90;;;6.00;99.90;;;;;;10445385;28;20214;-81
2023/02/14 18:41:58;;;;;;;35.77;32.07;;;5.90;99.90;;;;;;10492881;28;20205;-81
2023/02/14 18:47:01;;;;;;;34.10;30.50;;;5.80;99.90;;;;;;10435951;28;20702;-81
2023/02/14 18:52:03;;;;;;;35.47;31.63;;;5.80;99.90;;;;;;10425499;28;20269;-81
2023/02/14 18:57:07;;;;;;;34.73;31.03;;;5.70;99.90;;;;;;10489802;28;20213;-81
2023/02/14 19:02:09;;;;;;;33.80;30.20;;;5.70;99.90;;;;;;10458345;28;20201;-80
2023/02/14 19:07:11;;;;;;;36.07;31.40;;;5.60;99.90;;;;;;10448295;28;20209;-81
2023/02/14 19:12:15;;;;;;;40.03;29.80;;;5.50;99.90;;;;;;10466865;28;20267;-81
2023/02/14 19:17:17;;;;;;;32.07;28.73;;;5.50;99.90;;;;;;10482800;28;20593;-80
2023/02/14 19:22:19;;;;;;;50.23;40.50;;;5.40;99.90;;;;;;10398539;28;20286;-82
2023/02/14 19:27:22;;;;;;;88.00;57.57;;;5.40;99.90;;;;;;10500450;28;20225;-80
2023/02/14 19:32:24;;;;;;;73.37;50.50;;;5.40;99.90;;;;;;10452404;28;20226;-81
2023/02/14 19:37:27;;;;;;;116.10;75.47;;;5.30;99.90;;;;;;10409684;28;20631;-81
2023/02/14 19:42:30;;;;;;;34.87;31.37;;;5.30;99.90;;;;;;10446708;28;20265;-81
2023/02/14 19:47:32;;;;;;;32.40;29.00;;;5.20;99.90;;;;;;10499688;28;20216;-81
2023/02/14 19:52:34;;;;;;;31.20;28.10;;;5.20;99.90;;;;;;10473358;28;20219;-81
2023/02/14 19:57:39;;;;;;;30.80;27.60;;;5.10;99.90;;;;;;10523349;23;20231;-78
2023/02/14 20:02:46;;;;;;;30.60;27.50;;;5.00;99.90;;;;;;10542103;28;20192;-78
2023/02/14 20:07:50;;;;;;;32.23;28.93;;;4.90;99.90;;;;;;10508001;28;20212;-79
2023/02/14 20:12:54;;;;;;;31.00;26.67;;;4.90;99.90;;;;;;10530484;28;20695;-78
2023/02/14 20:17:56;;;;;;;30.73;27.70;;;4.80;99.90;;;;;;10537544;28;20228;-78
2023/02/14 20:22:59;;;;;;;30.20;26.83;;;4.80;99.90;;;;;;10482988;28;20200;-78
2023/02/14 20:28:03;;;;;;;32.97;29.57;;;4.70;99.90;;;;;;10535791;28;20217;-78
2023/02/14 20:33:05;;;;;;;30.27;27.17;;;4.70;99.90;;;;;;10525538;28;20215;-79
2023/02/14 20:38:08;;;;;;;29.93;26.33;;;4.70;99.90;;;;;;10539423;28;20212;-79
2023/02/14 20:43:11;;;;;;;33.53;25.63;;;4.70;99.90;;;;;;10511342;28;20262;-80
2023/02/14 20:48:13;;;;;;;31.63;28.33;;;4.70;99.90;;;;;;10506548;28;20216;-78
2023/02/14 20:53:15;;;;;;;30.43;27.43;;;4.60;99.90;;;;;;10539162;28;20223;-79
2023/02/14 20:58:19;;;;;;;29.10;26.10;;;4.60;99.90;;;;;;10547245;28;20231;-78
2023/02/14 21:03:22;;;;;;;29.13;26.17;;;4.50;99.90;;;;;;10522236;28;20205;-79
2023/02/14 21:08:24;;;;;;;32.90;29.40;;;4.50;99.90;;;;;;10483240;28;20219;-79
2023/02/14 21:13:27;;;;;;;30.33;27.20;;;4.50;99.90;;;;;;10520889;28;20212;-79
2023/02/14 21:18:30;;;;;;;29.57;26.47;;;4.50;99.90;;;;;;10558552;28;20219;-79
2023/02/14 21:23:32;;;;;;;30.80;27.63;;;4.50;99.90;;;;;;10531125;28;20202;-78
2023/02/14 21:28:35;;;;;;;35.03;31.40;;;4.40;99.90;;;;;;10480757;28;20235;-79
2023/02/14 21:33:37;;;;;;;33.67;30.20;;;4.40;99.90;;;;;;10574645;28;20222;-78
2023/02/14 21:38:40;;;;;;;34.83;30.33;;;4.50;99.90;;;;;;10474352;28;20526;-78
2023/02/14 21:43:46;;;;;;;32.97;29.47;;;4.50;99.90;;;;;;10513504;28;20697;-78
2023/02/14 21:54:10;;;;;;;30.67;27.57;;;4.50;99.90;;;;;;10507921;28;20191;-79
2023/02/14 21:59:14;;;;;;;33.33;29.77;;;4.40;99.90;;;;;;10451058;28;20228;-79
2023/02/14 22:04:16;;;;;;;31.43;28.13;;;4.40;99.90;;;;;;10475518;28;20231;-78
2023/02/14 22:09:18;;;;;;;30.60;27.50;;;4.30;99.90;;;;;;10451571;28;20302;-78
2023/02/14 22:14:21;;;;;;;32.00;28.70;;;4.30;99.90;;;;;;10477095;28;20278;-80
2023/02/14 22:19:23;;;;;;;31.43;28.13;;;4.20;99.90;;;;;;10494908;28;20622;-80
2023/02/14 22:24:25;;;;;;;29.60;26.60;;;4.20;99.90;;;;;;10498873;28;20220;-80
2023/02/14 22:29:29;;;;;;;30.83;27.53;;;4.20;99.90;;;;;;10453961;28;20244;-81
2023/02/14 22:34:31;;;;;;;29.77;26.67;;;4.30;99.90;;;;;;10478634;28;20634;-81
2023/02/14 22:39:33;;;;;;;30.47;25.70;;;4.30;99.90;;;;;;10438489;28;20202;-82
2023/02/14 22:44:36;;;;;;;28.30;24.63;;;4.30;99.90;;;;;;10429548;28;20216;-81
2023/02/14 22:49:38;;;;;;;26.23;23.63;;;4.20;99.90;;;;;;10476951;28;20260;-79
2023/02/14 22:54:41;;;;;;;28.50;25.67;;;4.20;99.90;;;;;;10460583;28;20307;-78
2023/02/14 22:59:44;;;;;;;30.07;25.77;;;4.10;99.90;;;;;;10428065;28;20664;-78
2023/02/14 23:04:46;;;;;;;27.23;24.33;;;4.00;99.90;;;;;;10424444;28;20239;-78
2023/02/14 23:09:49;;;;;;;28.30;25.40;;;4.00;99.90;;;;;;10454012;28;20223;-78
2023/02/14 23:25:33;;;;;;;27.47;24.57;;;4.10;99.90;;;;;;10396888;28;20688;-78
2023/02/14 23:30:37;;;;;;;26.40;23.80;;;4.10;99.90;;;;;;10453971;28;20306;-78
2023/02/14 23:35:39;;;;;;;25.30;22.80;;;4.00;99.90;;;;;;10425417;28;20282;-78
2023/02/14 23:46:00;;;;;;;25.40;22.77;;;4.00;99.90;;;;;;10426631;28;20223;-78
2023/02/14 23:51:02;;;;;;;27.77;24.87;;;4.00;99.90;;;;;;10465672;28;20206;-78
2023/02/14 23:56:05;;;;;;;26.13;23.43;;;3.90;99.90;;;;;;10449648;28;20256;-78
